sensor_id;sensor_type;location;lat;lon;timestamp;pressure;altitude;pressure_sealevel;temperature;humidity
42603;BME280;28233;55.748;48.752;2023-03-19T00:01:42;100998.16;;;-5.12;80.73
42603;BME280;28233;55.748;48.752;2023-03-19T00:03:47;100994.19;;;-5.16;80.16
42603;BME280;28233;55.748;48.752;2023-03-19T00:05:51;101001.22;;;-5.15;80.38
42603;BME280;28233;55.748;48.752;2023-03-19T00:07:55;100996.03;;;-5.16;80.72
42603;BME280;28233;55.748;48.752;2023-03-19T00:09:58;100994.56;;;-5.19;81.20
42603;BME280;28233;55.748;48.752;2023-03-19T00:12:01;100994.72;;;-5.20;80.91
42603;BME280;28233;55.748;48.752;2023-03-19T00:14:04;100995.38;;;-5.18;79.91
42603;BME280;28233;55.748;48.752;2023-03-19T00:16:07;100996.41;;;-5.19;80.04
42603;BME280;28233;55.748;48.752;2023-03-19T00:18:10;100999.09;;;-5.19;79.57
42603;BME280;28233;55.748;48.752;2023-03-19T00:20:13;100982.81;;;-5.18;80.70
42603;BME280;28233;55.748;48.752;2023-03-19T00:22:16;100989.03;;;-5.17;78.52
42603;BME280;28233;55.748;48.752;2023-03-19T00:24:19;100990.50;;;-5.15;77.76
42603;BME280;28233;55.748;48.752;2023-03-19T00:26:22;100991.88;;;-5.19;78.31
42603;BME280;28233;55.748;48.752;2023-03-19T00:28:25;100988.00;;;-5.16;78.64
42603;BME280;28233;55.748;48.752;2023-03-19T00:30:28;100994.56;;;-5.19;78.67
42603;BME280;28233;55.748;48.752;2023-03-19T00:32:31;100981.06;;;-5.25;78.82
42603;BME280;28233;55.748;48.752;2023-03-19T00:34:35;100986.03;;;-5.22;78.44
42603;BME280;28233;55.748;48.752;2023-03-19T00:36:38;100972.63;;;-5.22;77.16
42603;BME280;28233;55.748;48.752;2023-03-19T00:38:42;100985.03;;;-5.21;77.66
42603;BME280;28233;55.748;48.752;2023-03-19T00:40:45;100971.81;;;-5.23;77.67
42603;BME280;28233;55.748;48.752;2023-03-19T00:42:49;100981.53;;;-5.22;78.65
42603;BME280;28233;55.748;48.752;2023-03-19T00:44:52;100981.34;;;-5.20;77.65
42603;BME280;28233;55.748;48.752;2023-03-19T00:46:54;100990.03;;;-5.18;77.65
42603;BME280;28233;55.748;48.752;2023-03-19T00:48:57;100977.38;;;-5.24;77.31
42603;BME280;28233;55.748;48.752;2023-03-19T00:51:05;100985.22;;;-5.23;77.32
42603;BME280;28233;55.748;48.752;2023-03-19T00:53:08;100979.56;;;-5.28;77.13
42603;BME280;28233;55.748;48.752;2023-03-19T00:55:11;100997.94;;;-5.25;77.48
42603;BME280;28233;55.748;48.752;2023-03-19T00:57:14;100987.78;;;-5.29;77.55
42603;BME280;28233;55.748;48.752;2023-03-19T00:59:17;100997.38;;;-5.35;77.74
42603;BME280;28233;55.748;48.752;2023-03-19T01:01:20;100998.03;;;-5.33;78.43
42603;BME280;28233;55.748;48.752;2023-03-19T01:03:22;100995.16;;;-5.32;77.18
42603;BME280;28233;55.748;48.752;2023-03-19T01:05:25;100993.50;;;-5.33;77.61
42603;BME280;28233;55.748;48.752;2023-03-19T01:07:28;100996.84;;;-5.31;76.54
42603;BME280;28233;55.748;48.752;2023-03-19T01:09:31;100994.00;;;-5.29;75.83
42603;BME280;28233;55.748;48.752;2023-03-19T01:11:34;101000.34;;;-5.30;77.04
42603;BME280;28233;55.748;48.752;2023-03-19T01:13:37;100998.50;;;-5.29;77.24
42603;BME280;28233;55.748;48.752;2023-03-19T01:15:41;101000.53;;;-5.32;77.05
42603;BME280;28233;55.748;48.752;2023-03-19T01:17:44;100998.22;;;-5.35;75.81
42603;BME280;28233;55.748;48.752;2023-03-19T01:19:48;101003.94;;;-5.38;77.46
42603;BME280;28233;55.748;48.752;2023-03-19T01:21:52;100997.28;;;-5.42;76.56
42603;BME280;28233;55.748;48.752;2023-03-19T01:23:54;101001.81;;;-5.42;78.09
42603;BME280;28233;55.748;48.752;2023-03-19T01:25:58;100998.31;;;-5.43;76.55
42603;BME280;28233;55.748;48.752;2023-03-19T01:28:01;101000.31;;;-5.45;76.26
42603;BME280;28233;55.748;48.752;2023-03-19T01:30:05;100996.34;;;-5.49;77.09
42603;BME280;28233;55.748;48.752;2023-03-19T01:32:09;100995.69;;;-5.51;76.77
42603;BME280;28233;55.748;48.752;2023-03-19T01:34:12;100993.19;;;-5.53;76.98
42603;BME280;28233;55.748;48.752;2023-03-19T01:36:14;100994.38;;;-5.55;77.67
42603;BME280;28233;55.748;48.752;2023-03-19T01:38:17;100994.56;;;-5.57;77.43
42603;BME280;28233;55.748;48.752;2023-03-19T01:40:19;100990.84;;;-5.56;77.00
42603;BME280;28233;55.748;48.752;2023-03-19T01:42:22;100994.91;;;-5.60;77.25
42603;BME280;28233;55.748;48.752;2023-03-19T01:44:33;100996.75;;;-5.60;77.96
42603;BME280;28233;55.748;48.752;2023-03-19T01:46:37;100992.22;;;-5.60;77.79
42603;BME280;28233;55.748;48.752;2023-03-19T01:48:42;100993.91;;;-5.59;76.93
42603;BME280;28233;55.748;48.752;2023-03-19T01:50:46;100989.00;;;-5.55;77.87
42603;BME280;28233;55.748;48.752;2023-03-19T01:52:51;100993.53;;;-5.56;76.50
42603;BME280;28233;55.748;48.752;2023-03-19T01:54:55;100993.19;;;-5.53;77.11
42603;BME280;28233;55.748;48.752;2023-03-19T01:57:02;100986.53;;;-5.57;76.20
42603;BME280;28233;55.748;48.752;2023-03-19T02:01:15;100992.72;;;-5.56;76.35
42603;BME280;28233;55.748;48.752;2023-03-19T02:03:18;100991.22;;;-5.59;76.38
42603;BME280;28233;55.748;48.752;2023-03-19T02:05:21;100989.91;;;-5.63;76.73
42603;BME280;28233;55.748;48.752;2023-03-19T02:07:32;100985.91;;;-5.67;76.71
42603;BME280;28233;55.748;48.752;2023-03-19T02:09:36;100985.63;;;-5.72;77.03
42603;BME280;28233;55.748;48.752;2023-03-19T02:11:38;100985.34;;;-5.77;77.62
42603;BME280;28233;55.748;48.752;2023-03-19T02:13:42;100983.19;;;-5.82;76.80
42603;BME280;28233;55.748;48.752;2023-03-19T02:15:44;100991.75;;;-5.86;78.68
42603;BME280;28233;55.748;48.752;2023-03-19T02:17:47;100986.94;;;-5.91;78.13
42603;BME280;28233;55.748;48.752;2023-03-19T02:22:13;100978.81;;;-5.98;78.35
42603;BME280;28233;55.748;48.752;2023-03-19T02:24:25;100980.81;;;-6.00;77.35
42603;BME280;28233;55.748;48.752;2023-03-19T02:26:30;100975.47;;;-6.00;78.83
42603;BME280;28233;55.748;48.752;2023-03-19T02:28:35;100978.72;;;-6.04;79.53
42603;BME280;28233;55.748;48.752;2023-03-19T02:30:39;100973.91;;;-6.09;79.45
42603;BME280;28233;55.748;48.752;2023-03-19T02:32:42;100978.91;;;-6.14;79.65
42603;BME280;28233;55.748;48.752;2023-03-19T02:34:47;100980.31;;;-6.18;79.09
42603;BME280;28233;55.748;48.752;2023-03-19T02:36:52;100976.97;;;-6.20;78.97
42603;BME280;28233;55.748;48.752;2023-03-19T02:39:00;100968.44;;;-6.24;79.24
42603;BME280;28233;55.748;48.752;2023-03-19T02:41:06;100968.28;;;-6.22;79.83
42603;BME280;28233;55.748;48.752;2023-03-19T02:43:10;100970.13;;;-6.23;79.75
42603;BME280;28233;55.748;48.752;2023-03-19T02:45:13;100971.31;;;-6.25;79.72
42603;BME280;28233;55.748;48.752;2023-03-19T02:47:16;100959.59;;;-6.24;79.96
42603;BME280;28233;55.748;48.752;2023-03-19T02:49:19;100973.78;;;-6.24;79.41
42603;BME280;28233;55.748;48.752;2023-03-19T02:51:21;100977.50;;;-6.25;80.66
42603;BME280;28233;55.748;48.752;2023-03-19T02:53:24;100964.28;;;-6.26;79.58
42603;BME280;28233;55.748;48.752;2023-03-19T02:55:27;100965.47;;;-6.29;80.73
42603;BME280;28233;55.748;48.752;2023-03-19T02:57:29;100971.66;;;-6.28;80.15
42603;BME280;28233;55.748;48.752;2023-03-19T02:59:32;100965.63;;;-6.30;80.60
42603;BME280;28233;55.748;48.752;2023-03-19T03:01:35;100963.97;;;-6.31;80.19
42603;BME280;28233;55.748;48.752;2023-03-19T03:03:38;100964.81;;;-6.31;81.27
42603;BME280;28233;55.748;48.752;2023-03-19T03:05:41;100963.97;;;-6.31;80.87
42603;BME280;28233;55.748;48.752;2023-03-19T03:07:43;100965.00;;;-6.32;82.08
42603;BME280;28233;55.748;48.752;2023-03-19T03:09:46;100952.97;;;-6.36;81.36
42603;BME280;28233;55.748;48.752;2023-03-19T03:11:49;100960.94;;;-6.28;82.08
42603;BME280;28233;55.748;48.752;2023-03-19T03:13:52;100962.25;;;-6.24;81.76
42603;BME280;28233;55.748;48.752;2023-03-19T03:15:54;100953.41;;;-6.25;81.47
42603;BME280;28233;55.748;48.752;2023-03-19T03:17:57;100945.19;;;-6.23;82.48
42603;BME280;28233;55.748;48.752;2023-03-19T03:19:59;100947.16;;;-6.17;81.71
42603;BME280;28233;55.748;48.752;2023-03-19T03:22:04;100953.31;;;-6.08;81.09
42603;BME280;28233;55.748;48.752;2023-03-19T03:24:07;100944.09;;;-6.06;81.08
42603;BME280;28233;55.748;48.752;2023-03-19T03:26:10;100951.41;;;-6.00;81.55
42603;BME280;28233;55.748;48.752;2023-03-19T03:28:13;100948.38;;;-5.97;80.92
42603;BME280;28233;55.748;48.752;2023-03-19T03:30:16;100945.50;;;-5.95;80.01
42603;BME280;28233;55.748;48.752;2023-03-19T03:32:18;100941.44;;;-5.91;81.04
42603;BME280;28233;55.748;48.752;2023-03-19T03:34:21;100935.66;;;-5.94;80.01
42603;BME280;28233;55.748;48.752;2023-03-19T03:36:23;100947.75;;;-5.84;79.62
42603;BME280;28233;55.748;48.752;2023-03-19T03:38:29;100953.59;;;-5.80;79.37
42603;BME280;28233;55.748;48.752;2023-03-19T03:40:33;100944.53;;;-5.79;79.63
42603;BME280;28233;55.748;48.752;2023-03-19T03:42:38;100945.00;;;-5.76;79.34
42603;BME280;28233;55.748;48.752;2023-03-19T03:44:40;100934.31;;;-5.76;78.35
42603;BME280;28233;55.748;48.752;2023-03-19T03:46:43;100937.09;;;-5.69;78.97
42603;BME280;28233;55.748;48.752;2023-03-19T03:48:46;100934.88;;;-5.65;79.48
42603;BME280;28233;55.748;48.752;2023-03-19T03:50:50;100933.69;;;-5.63;78.92
42603;BME280;28233;55.748;48.752;2023-03-19T03:52:53;100932.31;;;-5.59;79.36
42603;BME280;28233;55.748;48.752;2023-03-19T03:54:56;100938.31;;;-5.57;79.45
42603;BME280;28233;55.748;48.752;2023-03-19T03:56:59;100935.09;;;-5.52;79.08
42603;BME280;28233;55.748;48.752;2023-03-19T03:59:04;100934.72;;;-5.49;79.74
42603;BME280;28233;55.748;48.752;2023-03-19T04:01:10;100933.16;;;-5.43;78.92
42603;BME280;28233;55.748;48.752;2023-03-19T04:03:16;100927.25;;;-5.39;78.77
42603;BME280;28233;55.748;48.752;2023-03-19T04:05:19;100935.06;;;-5.29;78.76
42603;BME280;28233;55.748;48.752;2023-03-19T04:07:22;100927.28;;;-5.24;78.49
42603;BME280;28233;55.748;48.752;2023-03-19T04:09:24;100927.94;;;-5.22;78.18
42603;BME280;28233;55.748;48.752;2023-03-19T04:11:27;100926.47;;;-5.10;77.62
42603;BME280;28233;55.748;48.752;2023-03-19T04:13:30;100926.75;;;-5.04;77.01
42603;BME280;28233;55.748;48.752;2023-03-19T04:15:41;100926.19;;;-5.00;76.43
42603;BME280;28233;55.748;48.752;2023-03-19T04:17:44;100919.06;;;-4.93;75.25
42603;BME280;28233;55.748;48.752;2023-03-19T04:19:46;100930.88;;;-4.87;75.64
42603;BME280;28233;55.748;48.752;2023-03-19T04:21:49;100927.47;;;-4.81;76.04
42603;BME280;28233;55.748;48.752;2023-03-19T04:23:52;100922.38;;;-4.76;75.99
42603;BME280;28233;55.748;48.752;2023-03-19T04:26:02;100916.06;;;-4.68;76.06
42603;BME280;28233;55.748;48.752;2023-03-19T04:28:05;100923.38;;;-4.62;74.18
42603;BME280;28233;55.748;48.752;2023-03-19T04:30:08;100920.13;;;-4.57;74.23
42603;BME280;28233;55.748;48.752;2023-03-19T04:32:11;100914.84;;;-4.51;73.71
42603;BME280;28233;55.748;48.752;2023-03-19T04:34:14;100912.81;;;-4.49;73.99
42603;BME280;28233;55.748;48.752;2023-03-19T04:36:16;100922.78;;;-4.42;72.27
42603;BME280;28233;55.748;48.752;2023-03-19T04:38:20;100918.69;;;-4.38;72.08
42603;BME280;28233;55.748;48.752;2023-03-19T04:40:23;100915.06;;;-4.31;71.85
42603;BME280;28233;55.748;48.752;2023-03-19T04:42:26;100920.88;;;-4.27;70.88
42603;BME280;28233;55.748;48.752;2023-03-19T04:44:29;100913.09;;;-4.22;71.58
42603;BME280;28233;55.748;48.752;2023-03-19T04:46:32;100903.44;;;-4.16;72.21
42603;BME280;28233;55.748;48.752;2023-03-19T04:48:35;100905.63;;;-4.05;71.67
42603;BME280;28233;55.748;48.752;2023-03-19T04:50:37;100907.09;;;-4.03;70.23
42603;BME280;28233;55.748;48.752;2023-03-19T04:52:41;100913.31;;;-4.02;70.21
42603;BME280;28233;55.748;48.752;2023-03-19T04:54:44;100912.75;;;-3.97;70.96
42603;BME280;28233;55.748;48.752;2023-03-19T04:56:46;100913.16;;;-3.94;69.18
42603;BME280;28233;55.748;48.752;2023-03-19T04:58:49;100914.63;;;-3.91;69.98
42603;BME280;28233;55.748;48.752;2023-03-19T05:00:51;100909.50;;;-3.86;69.80
42603;BME280;28233;55.748;48.752;2023-03-19T05:02:55;100908.13;;;-3.82;69.66
42603;BME280;28233;55.748;48.752;2023-03-19T05:04:57;100911.25;;;-3.78;68.86
42603;BME280;28233;55.748;48.752;2023-03-19T05:07:00;100903.63;;;-3.75;68.27
42603;BME280;28233;55.748;48.752;2023-03-19T05:09:03;100900.13;;;-3.75;67.93
42603;BME280;28233;55.748;48.752;2023-03-19T05:11:06;100901.00;;;-3.68;68.63
42603;BME280;28233;55.748;48.752;2023-03-19T05:13:09;100898.75;;;-3.65;68.13
42603;BME280;28233;55.748;48.752;2023-03-19T05:15:12;100890.09;;;-3.60;67.99
42603;BME280;28233;55.748;48.752;2023-03-19T05:17:14;100899.44;;;-3.56;68.57
42603;BME280;28233;55.748;48.752;2023-03-19T05:19:17;100892.66;;;-3.52;67.76
42603;BME280;28233;55.748;48.752;2023-03-19T05:21:19;100889.78;;;-3.50;68.00
42603;BME280;28233;55.748;48.752;2023-03-19T05:23:22;100883.19;;;-3.48;68.14
42603;BME280;28233;55.748;48.752;2023-03-19T05:25:25;100896.22;;;-3.45;66.23
42603;BME280;28233;55.748;48.752;2023-03-19T05:27:28;100888.56;;;-3.48;67.42
42603;BME280;28233;55.748;48.752;2023-03-19T05:29:31;100890.91;;;-3.38;67.49
42603;BME280;28233;55.748;48.752;2023-03-19T05:31:33;100891.13;;;-3.33;67.82
42603;BME280;28233;55.748;48.752;2023-03-19T05:33:36;100886.56;;;-3.32;67.12
42603;BME280;28233;55.748;48.752;2023-03-19T05:35:39;100901.28;;;-3.28;66.99
42603;BME280;28233;55.748;48.752;2023-03-19T05:37:41;100898.66;;;-3.22;66.98
42603;BME280;28233;55.748;48.752;2023-03-19T05:39:44;100886.66;;;-3.19;66.54
42603;BME280;28233;55.748;48.752;2023-03-19T05:41:46;100887.31;;;-3.17;66.40
42603;BME280;28233;55.748;48.752;2023-03-19T05:43:49;100885.88;;;-3.13;66.81
42603;BME280;28233;55.748;48.752;2023-03-19T05:45:52;100881.34;;;-3.06;67.38
42603;BME280;28233;55.748;48.752;2023-03-19T05:47:55;100875.19;;;-3.00;65.90
42603;BME280;28233;55.748;48.752;2023-03-19T05:49:57;100880.16;;;-2.97;66.93
42603;BME280;28233;55.748;48.752;2023-03-19T05:52:00;100875.84;;;-2.91;66.35
42603;BME280;28233;55.748;48.752;2023-03-19T05:54:03;100874.00;;;-2.90;65.74
42603;BME280;28233;55.748;48.752;2023-03-19T05:56:05;100872.56;;;-2.86;65.25
42603;BME280;28233;55.748;48.752;2023-03-19T05:58:08;100875.28;;;-2.80;65.05
42603;BME280;28233;55.748;48.752;2023-03-19T06:00:12;100887.91;;;-2.80;65.32
42603;BME280;28233;55.748;48.752;2023-03-19T06:02:15;100881.91;;;-2.82;64.80
42603;BME280;28233;55.748;48.752;2023-03-19T06:04:17;100882.75;;;-2.75;66.04
42603;BME280;28233;55.748;48.752;2023-03-19T06:06:20;100878.00;;;-2.73;64.56
42603;BME280;28233;55.748;48.752;2023-03-19T06:08:24;100878.63;;;-2.71;64.82
42603;BME280;28233;55.748;48.752;2023-03-19T06:10:26;100870.34;;;-2.69;64.99
42603;BME280;28233;55.748;48.752;2023-03-19T06:12:30;100879.47;;;-2.64;64.76
42603;BME280;28233;55.748;48.752;2023-03-19T06:14:33;100876.81;;;-2.57;65.34
42603;BME280;28233;55.748;48.752;2023-03-19T06:16:36;100866.25;;;-2.52;64.55
42603;BME280;28233;55.748;48.752;2023-03-19T06:18:39;100858.78;;;-2.57;64.16
42603;BME280;28233;55.748;48.752;2023-03-19T06:20:41;100867.53;;;-2.48;63.98
42603;BME280;28233;55.748;48.752;2023-03-19T06:22:44;100857.38;;;-2.46;64.37
42603;BME280;28233;55.748;48.752;2023-03-19T06:24:46;100858.03;;;-2.37;64.89
42603;BME280;28233;55.748;48.752;2023-03-19T06:26:49;100860.31;;;-2.34;64.15
42603;BME280;28233;55.748;48.752;2023-03-19T06:28:52;100863.66;;;-2.25;64.33
42603;BME280;28233;55.748;48.752;2023-03-19T06:30:56;100862.00;;;-2.20;65.29
42603;BME280;28233;55.748;48.752;2023-03-19T06:32:59;100853.75;;;-2.11;64.92
42603;BME280;28233;55.748;48.752;2023-03-19T06:35:02;100854.97;;;-2.07;65.02
42603;BME280;28233;55.748;48.752;2023-03-19T06:37:04;100849.78;;;-2.02;64.99
42603;BME280;28233;55.748;48.752;2023-03-19T06:39:07;100850.41;;;-1.94;65.77
42603;BME280;28233;55.748;48.752;2023-03-19T06:41:10;100850.63;;;-1.82;65.81
42603;BME280;28233;55.748;48.752;2023-03-19T06:43:13;100845.88;;;-1.80;63.00
42603;BME280;28233;55.748;48.752;2023-03-19T06:45:16;100841.09;;;-1.71;65.18
42603;BME280;28233;55.748;48.752;2023-03-19T06:47:20;100837.97;;;-1.68;64.10
42603;BME280;28233;55.748;48.752;2023-03-19T06:49:24;100841.69;;;-1.62;63.06
42603;BME280;28233;55.748;48.752;2023-03-19T06:51:32;100828.03;;;-1.61;62.83
42603;BME280;28233;55.748;48.752;2023-03-19T06:53:34;100840.06;;;-1.63;61.99
42603;BME280;28233;55.748;48.752;2023-03-19T06:55:37;100825.53;;;-1.62;62.74
42603;BME280;28233;55.748;48.752;2023-03-19T06:57:40;100825.94;;;-1.59;62.94
42603;BME280;28233;55.748;48.752;2023-03-19T06:59:42;100814.53;;;-1.54;62.63
42603;BME280;28233;55.748;48.752;2023-03-19T07:01:45;100823.44;;;-1.47;62.52
42603;BME280;28233;55.748;48.752;2023-03-19T07:03:48;100813.91;;;-1.43;61.29
42603;BME280;28233;55.748;48.752;2023-03-19T07:05:50;100807.66;;;-1.37;62.32
42603;BME280;28233;55.748;48.752;2023-03-19T07:07:53;100818.66;;;-1.32;61.93
42603;BME280;28233;55.748;48.752;2023-03-19T07:09:55;100815.72;;;-1.30;60.69
42603;BME280;28233;55.748;48.752;2023-03-19T07:11:58;100812.81;;;-1.22;61.80
42603;BME280;28233;55.748;48.752;2023-03-19T07:14:01;100816.31;;;-1.15;62.10
42603;BME280;28233;55.748;48.752;2023-03-19T07:16:04;100813.38;;;-1.13;60.85
42603;BME280;28233;55.748;48.752;2023-03-19T07:18:07;100799.50;;;-1.17;61.61
42603;BME280;28233;55.748;48.752;2023-03-19T07:20:10;100808.41;;;-1.10;61.04
42603;BME280;28233;55.748;48.752;2023-03-19T07:22:13;100805.88;;;-1.04;62.16
42603;BME280;28233;55.748;48.752;2023-03-19T07:24:15;100809.56;;;-0.92;62.67
42603;BME280;28233;55.748;48.752;2023-03-19T07:26:18;100804.75;;;-0.83;61.08
42603;BME280;28233;55.748;48.752;2023-03-19T07:28:21;100807.19;;;-0.75;61.98
42603;BME280;28233;55.748;48.752;2023-03-19T07:30:24;100816.13;;;-0.68;60.95
42603;BME280;28233;55.748;48.752;2023-03-19T07:32:27;100802.34;;;-0.60;61.80
42603;BME280;28233;55.748;48.752;2023-03-19T07:34:29;100799.41;;;-0.52;62.29
42603;BME280;28233;55.748;48.752;2023-03-19T07:36:32;100802.66;;;-0.43;62.54
42603;BME280;28233;55.748;48.752;2023-03-19T07:38:35;100793.91;;;-0.38;60.96
42603;BME280;28233;55.748;48.752;2023-03-19T07:40:38;100802.97;;;-0.26;61.30
42603;BME280;28233;55.748;48.752;2023-03-19T07:42:46;100804.19;;;-0.22;62.84
42603;BME280;28233;55.748;48.752;2023-03-19T07:44:49;100805.41;;;-0.18;62.24
42603;BME280;28233;55.748;48.752;2023-03-19T07:46:52;100804.34;;;-0.17;62.42
42603;BME280;28233;55.748;48.752;2023-03-19T07:48:54;100794.97;;;-0.14;60.85
42603;BME280;28233;55.748;48.752;2023-03-19T07:50:57;100797.88;;;-0.09;61.98
42603;BME280;28233;55.748;48.752;2023-03-19T07:53:00;100784.56;;;-0.11;60.57
42603;BME280;28233;55.748;48.752;2023-03-19T07:55:02;100778.06;;;-0.03;61.20
42603;BME280;28233;55.748;48.752;2023-03-19T07:57:05;100780.50;;;0.05;62.00
42603;BME280;28233;55.748;48.752;2023-03-19T07:59:08;100779.59;;;0.11;61.74
42603;BME280;28233;55.748;48.752;2023-03-19T08:01:10;100774.84;;;0.07;60.09
42603;BME280;28233;55.748;48.752;2023-03-19T08:03:13;100777.75;;;0.12;61.12
42603;BME280;28233;55.748;48.752;2023-03-19T08:05:16;100774.94;;;0.18;60.22
42603;BME280;28233;55.748;48.752;2023-03-19T08:07:18;100773.19;;;0.31;62.12
42603;BME280;28233;55.748;48.752;2023-03-19T08:09:21;100755.69;;;0.33;61.82
42603;BME280;28233;55.748;48.752;2023-03-19T08:11:24;100767.88;;;0.43;61.39
42603;BME280;28233;55.748;48.752;2023-03-19T08:13:26;100759.66;;;0.49;62.77
42603;BME280;28233;55.748;48.752;2023-03-19T08:15:29;100762.69;;;0.59;61.55
42603;BME280;28233;55.748;48.752;2023-03-19T08:17:32;100759.91;;;0.66;64.81
42603;BME280;28233;55.748;48.752;2023-03-19T08:19:39;100767.03;;;0.79;64.56
42603;BME280;28233;55.748;48.752;2023-03-19T08:21:42;100755.75;;;0.82;62.80
42603;BME280;28233;55.748;48.752;2023-03-19T08:23:45;100764.72;;;0.82;63.68
42603;BME280;28233;55.748;48.752;2023-03-19T08:25:48;100754.72;;;0.83;63.00
42603;BME280;28233;55.748;48.752;2023-03-19T08:27:53;100753.22;;;0.87;64.32
42603;BME280;28233;55.748;48.752;2023-03-19T08:29:58;100748.09;;;0.97;64.78
42603;BME280;28233;55.748;48.752;2023-03-19T08:32:01;100739.63;;;1.05;64.27
42603;BME280;28233;55.748;48.752;2023-03-19T08:34:04;100743.31;;;1.11;64.65
42603;BME280;28233;55.748;48.752;2023-03-19T08:36:12;100737.22;;;1.16;64.42
42603;BME280;28233;55.748;48.752;2023-03-19T08:38:15;100733.22;;;1.18;62.26
42603;BME280;28233;55.748;48.752;2023-03-19T08:40:18;100725.91;;;1.19;62.67
42603;BME280;28233;55.748;48.752;2023-03-19T08:42:21;100720.28;;;1.20;63.77
42603;BME280;28233;55.748;48.752;2023-03-19T08:44:24;100724.41;;;1.23;62.32
42603;BME280;28233;55.748;48.752;2023-03-19T08:46:27;100714.06;;;1.32;64.06
42603;BME280;28233;55.748;48.752;2023-03-19T08:48:30;100711.94;;;1.34;62.84
42603;BME280;28233;55.748;48.752;2023-03-19T08:50:33;100707.13;;;1.36;62.99
42603;BME280;28233;55.748;48.752;2023-03-19T08:52:36;100701.41;;;1.44;64.20
42603;BME280;28233;55.748;48.752;2023-03-19T08:54:39;100694.94;;;1.57;64.61
42603;BME280;28233;55.748;48.752;2023-03-19T08:56:41;100695.66;;;1.64;64.84
42603;BME280;28233;55.748;48.752;2023-03-19T08:58:44;100692.22;;;1.68;63.99
42603;BME280;28233;55.748;48.752;2023-03-19T09:00:47;100690.34;;;1.69;60.11
42603;BME280;28233;55.748;48.752;2023-03-19T09:02:50;100679.88;;;1.73;62.18
42603;BME280;28233;55.748;48.752;2023-03-19T09:04:53;100684.81;;;1.76;62.65
42603;BME280;28233;55.748;48.752;2023-03-19T09:06:56;100672.34;;;1.86;63.31
42603;BME280;28233;55.748;48.752;2023-03-19T09:08:58;100667.75;;;1.99;62.06
42603;BME280;28233;55.748;48.752;2023-03-19T09:11:01;100668.66;;;2.04;62.19
42603;BME280;28233;55.748;48.752;2023-03-19T09:13:04;100660.41;;;2.11;61.76
42603;BME280;28233;55.748;48.752;2023-03-19T09:15:07;100671.63;;;2.15;60.99
42603;BME280;28233;55.748;48.752;2023-03-19T09:17:10;100666.66;;;2.11;59.76
42603;BME280;28233;55.748;48.752;2023-03-19T09:19:13;100660.41;;;2.11;60.81
42603;BME280;28233;55.748;48.752;2023-03-19T09:21:15;100658.66;;;2.17;59.94
42603;BME280;28233;55.748;48.752;2023-03-19T09:23:18;100656.38;;;2.25;62.02
42603;BME280;28233;55.748;48.752;2023-03-19T09:25:22;100647.88;;;2.33;61.39
42603;BME280;28233;55.748;48.752;2023-03-19T09:27:24;100655.91;;;2.40;61.43
42603;BME280;28233;55.748;48.752;2023-03-19T09:29:27;100654.41;;;2.61;60.60
42603;BME280;28233;55.748;48.752;2023-03-19T09:31:29;100655.91;;;2.69;59.44
42603;BME280;28233;55.748;48.752;2023-03-19T09:33:32;100658.03;;;2.67;57.77
42603;BME280;28233;55.748;48.752;2023-03-19T09:35:35;100649.28;;;2.77;60.36
42603;BME280;28233;55.748;48.752;2023-03-19T09:37:41;100642.44;;;2.74;57.88
42603;BME280;28233;55.748;48.752;2023-03-19T09:39:43;100643.53;;;2.73;57.85
42603;BME280;28233;55.748;48.752;2023-03-19T09:46:57;100631.09;;;2.77;56.51
42603;BME280;28233;55.748;48.752;2023-03-19T09:49:09;100643.47;;;2.85;60.79
42603;BME280;28233;55.748;48.752;2023-03-19T09:51:18;100631.63;;;2.91;57.90
42603;BME280;28233;55.748;48.752;2023-03-19T09:55:51;100627.00;;;2.91;59.53
42603;BME280;28233;55.748;48.752;2023-03-19T09:57:56;100632.66;;;3.02;58.54
42603;BME280;28233;55.748;48.752;2023-03-19T10:00:00;100624.41;;;2.96;57.37
42603;BME280;28233;55.748;48.752;2023-03-19T10:02:21;100629.19;;;2.89;54.69
42603;BME280;28233;55.748;48.752;2023-03-19T10:06:52;100625.41;;;3.07;57.57
42603;BME280;28233;55.748;48.752;2023-03-19T10:09:23;100625.16;;;3.09;55.51
42603;BME280;28233;55.748;48.752;2023-03-19T10:16:21;100621.44;;;2.98;59.29
42603;BME280;28233;55.748;48.752;2023-03-19T10:18:32;100616.09;;;3.03;59.77
42603;BME280;28233;55.748;48.752;2023-03-19T10:21:41;100613.66;;;3.18;59.70
42603;BME280;28233;55.748;48.752;2023-03-19T10:25:30;100612.84;;;3.18;60.73
42603;BME280;28233;55.748;48.752;2023-03-19T10:27:36;100614.88;;;3.11;59.83
42603;BME280;28233;55.748;48.752;2023-03-19T10:29:39;100607.63;;;3.16;60.97
42603;BME280;28233;55.748;48.752;2023-03-19T10:31:52;100616.13;;;3.37;59.50
42603;BME280;28233;55.748;48.752;2023-03-19T10:36:10;100602.69;;;3.64;58.36
42603;BME280;28233;55.748;48.752;2023-03-19T10:38:22;100594.19;;;3.77;59.09
42603;BME280;28233;55.748;48.752;2023-03-19T10:40:33;100587.25;;;3.87;57.20
42603;BME280;28233;55.748;48.752;2023-03-19T10:42:55;100582.94;;;3.91;56.56
42603;BME280;28233;55.748;48.752;2023-03-19T10:47:27;100584.16;;;4.00;57.69
42603;BME280;28233;55.748;48.752;2023-03-19T10:49:34;100582.72;;;4.14;58.90
42603;BME280;28233;55.748;48.752;2023-03-19T10:51:37;100580.00;;;4.14;58.01
42603;BME280;28233;55.748;48.752;2023-03-19T10:53:41;100585.72;;;4.18;58.14
42603;BME280;28233;55.748;48.752;2023-03-19T10:55:53;100572.25;;;4.06;55.28
42603;BME280;28233;55.748;48.752;2023-03-19T10:58:15;100581.06;;;4.13;55.97
42603;BME280;28233;55.748;48.752;2023-03-19T11:00:19;100572.94;;;4.40;61.25
42603;BME280;28233;55.748;48.752;2023-03-19T11:02:24;100566.84;;;4.55;59.97
42603;BME280;28233;55.748;48.752;2023-03-19T11:04:33;100558.09;;;4.53;58.85
42603;BME280;28233;55.748;48.752;2023-03-19T11:06:37;100558.06;;;4.48;55.88
42603;BME280;28233;55.748;48.752;2023-03-19T11:08:40;100551.94;;;4.36;57.51